Time;durP1;ratioP1;P1;durP2;ratioP2;P2;SDS_P1;SDS_P2;PMS_P1;PMS_P2;Temp;Humidity;BMP_temperature;BMP_pressure;BME280_temperature;BME280_humidity;BME280_pressure;Samples;Min_cycle;Max_cycle;Signal;HPM_P1;HPM_P2
2021/08/24 00:00:43;;;;;;;10.95;4.10;;;15.40;84.70;;;;;;5014549;28;20018;-87
2021/08/24 00:03:09;;;;;;;11.40;5.00;;;15.40;84.80;;;;;;5013705;28;20052;-86
2021/08/24 00:05:37;;;;;;;7.55;3.20;;;15.40;84.80;;;;;;5013798;28;20018;-86
2021/08/24 00:08:03;;;;;;;;;;;15.40;85.00;;;;;;5009309;28;20030;-86
2021/08/24 00:10:48;;;;;;;12.10;3.95;;;15.40;84.10;;;;;;5014228;28;19910;-85
2021/08/24 00:13:14;;;;;;;8.52;3.28;;;15.30;84.80;;;;;;5024779;28;20040;-86
2021/08/24 00:15:42;;;;;;;9.40;3.65;;;15.30;85.10;;;;;;5014891;28;20113;-86
2021/08/24 00:18:09;;;;;;;7.05;4.05;;;15.30;85.20;;;;;;5013721;28;20038;-87
2021/08/24 00:20:35;;;;;;;7.35;3.83;;;15.30;85.50;;;;;;5013434;28;20041;-85
2021/08/24 00:23:04;;;;;;;8.48;4.25;;;15.30;85.60;;;;;;5013668;28;20034;-86
2021/08/24 00:25:30;;;;;;;6.85;3.60;;;15.30;85.50;;;;;;5013538;28;20097;-88
2021/08/24 00:27:56;;;;;;;6.78;3.75;;;15.30;85.70;;;;;;5011150;28;20079;-87
2021/08/24 00:30:22;;;;;;;8.48;3.65;;;15.30;85.70;;;;;;5013270;28;20026;-85
2021/08/24 00:32:47;;;;;;;5.50;3.53;;;15.30;86.10;;;;;;5017688;28;20428;-87
2021/08/24 00:35:13;;;;;;;7.28;3.92;;;15.20;86.00;;;;;;5012318;28;20022;-86
2021/08/24 00:37:39;;;;;;;5.57;3.67;;;15.20;86.10;;;;;;5014552;28;20038;-85
2021/08/24 00:40:07;;;;;;;7.93;4.28;;;15.20;86.10;;;;;;5014865;28;20021;-86
2021/08/24 00:42:34;;;;;;;9.88;4.65;;;15.20;86.30;;;;;;5020757;28;20057;-85
2021/08/24 00:45:00;;;;;;;8.40;3.95;;;15.20;86.40;;;;;;5016071;28;20042;-86
2021/08/24 00:47:27;;;;;;;8.48;3.92;;;15.20;86.40;;;;;;5013353;28;20065;-86
2021/08/24 00:50:01;;;;;;;6.82;3.75;;;15.10;86.70;;;;;;5012589;28;20014;-86
2021/08/24 00:52:27;;;;;;;8.27;4.05;;;15.10;86.60;;;;;;5012614;28;20117;-86
2021/08/24 00:54:54;;;;;;;8.07;3.85;;;;;;;;;;4999125;28;20045;-87
2021/08/24 00:57:21;;;;;;;;;;;15.00;86.80;;;;;;5013087;28;20476;-86
2021/08/24 00:59:48;;;;;;;10.60;4.45;;;15.00;86.50;;;;;;5012077;28;19920;-86
2021/08/24 01:02:22;;;;;;;9.90;3.93;;;14.90;87.30;;;;;;5012251;28;20030;-86
2021/08/24 01:04:49;;;;;;;12.43;4.35;;;14.90;87.90;;;;;;5012495;28;20720;-84
2021/08/24 01:07:15;;;;;;;;;;;15.00;88.10;;;;;;5015987;28;20053;-86
2021/08/24 01:10:00;;;;;;;7.70;4.22;;;14.90;87.00;;;;;;5015718;28;19941;-85
2021/08/24 01:12:34;;;;;;;12.55;4.28;;;14.90;88.00;;;;;;5004186;28;20018;-88
2021/08/24 01:15:55;;;;;;;11.45;4.70;;;14.80;88.40;;;;;;5014114;28;20088;-84
2021/08/24 01:18:58;;;;;;;10.35;4.15;;;14.90;88.00;;;;;;4970519;28;20105;-86
2021/08/24 01:22:04;;;;;;;8.93;3.50;;;14.90;88.10;;;;;;5008216;28;20021;-85
2021/08/24 01:24:59;;;;;;;8.73;4.37;;;14.90;88.20;;;;;;5006899;28;20025;-87
2021/08/24 01:28:05;;;;;;;6.55;3.72;;;14.90;88.20;;;;;;5013795;28;20109;-88
2021/08/24 01:30:53;;;;;;;9.55;4.47;;;14.90;88.20;;;;;;4986954;28;20033;-85
2021/08/24 01:33:36;;;;;;;11.90;4.13;;;14.90;88.40;;;;;;5012903;28;20077;-86
2021/08/24 01:36:37;;;;;;;6.35;3.40;;;14.80;88.70;;;;;;5016607;28;20463;-84
2021/08/24 01:39:05;;;;;;;10.77;3.95;;;14.80;88.50;;;;;;5002492;28;20042;-86
2021/08/24 01:41:53;;;;;;;6.45;3.95;;;14.80;88.70;;;;;;5030410;28;20041;-86
2021/08/24 01:44:22;;;;;;;6.63;3.67;;;14.90;88.70;;;;;;5016637;28;20171;-87
2021/08/24 01:47:07;;;;;;;8.50;4.28;;;14.90;88.80;;;;;;5013928;28;20032;-86
2021/08/24 01:49:40;;;;;;;8.80;4.20;;;14.90;88.70;;;;;;5015036;28;20056;-87
2021/08/24 01:52:09;;;;;;;9.68;3.97;;;14.90;88.80;;;;;;5015193;28;20117;-87
2021/08/24 01:54:46;;;;;;;9.90;4.30;;;14.90;88.80;;;;;;5014699;28;20026;-86
2021/08/24 01:57:26;;;;;;;6.32;4.05;;;14.90;88.90;;;;;;5014970;28;20033;-86
2021/08/24 02:00:00;;;;;;;7.80;3.90;;;15.00;89.50;;;;;;5015255;28;20053;-87
2021/08/24 02:02:35;;;;;;;8.40;3.78;;;15.00;88.80;;;;;;5015187;28;20472;-86
2021/08/24 02:05:14;;;;;;;11.30;3.88;;;15.10;88.80;;;;;;5016290;28;20054;-86
2021/08/24 02:07:40;;;;;;;9.32;4.13;;;15.20;88.10;;;;;;5004040;28;20515;-87
2021/08/24 02:10:15;;;;;;;8.35;4.25;;;15.20;87.70;;;;;;5015549;28;20430;-85
2021/08/24 02:12:43;;;;;;;12.05;4.13;;;15.30;87.50;;;;;;5016257;28;20026;-87
2021/08/24 02:15:10;;;;;;;10.25;3.63;;;15.30;87.20;;;;;;5015370;28;20395;-87
2021/08/24 02:17:44;;;;;;;6.97;3.85;;;15.30;87.20;;;;;;5014938;28;20030;-88
2021/08/24 02:20:20;;;;;;;11.82;4.20;;;15.40;86.70;;;;;;5014241;28;20483;-85
2021/08/24 02:22:50;;;;;;;11.80;3.85;;;15.30;86.70;;;;;;5014432;28;20502;-85
2021/08/24 02:25:24;;;;;;;12.70;3.90;;;15.30;87.10;;;;;;5014347;28;20026;-86
2021/08/24 02:28:15;;;;;;;6.00;3.38;;;15.20;87.40;;;;;;5014804;28;20030;-85
2021/08/24 02:30:47;;;;;;;7.50;4.00;;;15.20;87.20;;;;;;5005073;28;20033;-86
2021/08/24 02:33:13;;;;;;;4.75;2.78;;;15.20;87.30;;;;;;5014343;28;20529;-85
2021/08/24 02:35:48;;;;;;;4.85;3.22;;;15.10;87.20;;;;;;5013881;28;20423;-84
2021/08/24 02:38:21;;;;;;;4.65;3.00;;;15.10;87.30;;;;;;5014864;28;20034;-84
2021/08/24 02:40:54;;;;;;;8.20;3.65;;;15.10;87.00;;;;;;5014183;28;20500;-85
2021/08/24 02:44:00;;;;;;;6.47;3.58;;;15.10;87.00;;;;;;5014527;28;20514;-85
2021/08/24 02:46:31;;;;;;;;;;;15.10;87.00;;;;;;4987373;28;20499;-85
2021/08/24 02:49:08;;;;;;;7.70;4.18;;;15.00;86.50;;;;;;5017331;28;20371;-86
2021/08/24 02:51:34;;;;;;;9.10;3.67;;;15.00;87.10;;;;;;5015223;28;20072;-85
2021/08/24 02:54:20;;;;;;;9.18;3.90;;;14.90;87.30;;;;;;5013735;28;20030;-86
2021/08/24 02:56:46;;;;;;;6.65;3.35;;;15.00;87.40;;;;;;5001029;28;20022;-86
2021/08/24 02:59:12;;;;;;;5.28;3.47;;;14.90;87.80;;;;;;5015479;28;20392;-85
2021/08/24 03:01:38;;;;;;;6.88;4.00;;;15.00;88.10;;;;;;5020712;28;20022;-85
2021/08/24 03:04:05;;;;;;;7.57;3.63;;;15.00;88.10;;;;;;5028439;28;20040;-85
2021/08/24 03:06:35;;;;;;;8.05;3.95;;;15.00;87.70;;;;;;5007380;28;20025;-85
2021/08/24 03:09:01;;;;;;;6.68;3.40;;;15.00;87.60;;;;;;5013893;28;20077;-86
2021/08/24 03:11:33;;;;;;;6.70;3.80;;;15.10;87.70;;;;;;5013895;28;20474;-84
2021/08/24 03:14:05;;;;;;;9.30;3.72;;;15.10;87.50;;;;;;5014434;28;20434;-85
2021/08/24 03:16:37;;;;;;;7.35;3.90;;;15.10;87.40;;;;;;5013580;28;20068;-85
2021/08/24 03:19:18;;;;;;;6.22;3.92;;;15.10;87.20;;;;;;5014095;28;20049;-87
2021/08/24 03:21:46;;;;;;;9.57;3.53;;;15.10;87.10;;;;;;5013752;28;20101;-86
2021/08/24 03:24:15;;;;;;;6.35;4.13;;;15.00;87.40;;;;;;5013439;28;20026;-85
2021/08/24 03:26:42;;;;;;;9.65;4.30;;;15.00;87.50;;;;;;5012308;28;20030;-85
2021/08/24 03:29:10;;;;;;;8.20;4.20;;;15.00;87.50;;;;;;5015764;28;20384;-86
2021/08/24 03:31:38;;;;;;;11.48;4.00;;;15.10;87.50;;;;;;5017632;28;20046;-85
2021/08/24 03:34:05;;;;;;;6.97;3.60;;;15.10;87.20;;;;;;5013920;28;20056;-86
2021/08/24 03:36:31;;;;;;;8.35;4.43;;;15.10;87.20;;;;;;5017126;28;20029;-87
2021/08/24 03:38:57;;;;;;;6.50;3.83;;;15.20;87.10;;;;;;5016065;28;20124;-86
2021/08/24 03:41:22;;;;;;;11.23;4.43;;;15.30;87.00;;;;;;5013724;28;20042;-83
2021/08/24 03:43:48;;;;;;;7.45;4.05;;;15.30;86.50;;;;;;5013191;28;20428;-84
2021/08/24 03:46:14;;;;;;;11.25;4.40;;;15.40;86.10;;;;;;5013184;28;20032;-87
2021/08/24 03:48:40;;;;;;;5.22;3.53;;;15.50;85.80;;;;;;5012318;28;20026;-84
2021/08/24 03:51:05;;;;;;;9.30;3.47;;;15.60;85.20;;;;;;5013042;28;20034;-85
2021/08/24 03:53:33;;;;;;;6.95;3.75;;;15.60;84.80;;;;;;5013581;28;20022;-86
2021/08/24 03:55:59;;;;;;;;;;;15.70;84.50;;;;;;5014214;28;20022;-84
2021/08/24 03:58:25;;;;;;;5.15;3.53;;;15.70;84.30;;;;;;5014901;28;19914;-85
2021/08/24 04:00:51;;;;;;;6.93;3.35;;;15.70;84.70;;;;;;5012319;28;20034;-87
2021/08/24 04:03:17;;;;;;;5.93;3.63;;;15.70;84.60;;;;;;5013705;28;20536;-88
2021/08/24 04:05:42;;;;;;;7.10;3.17;;;15.70;84.30;;;;;;5003856;28;20081;-87
2021/08/24 04:08:09;;;;;;;6.85;3.45;;;15.70;83.80;;;;;;5014796;28;20092;-88
2021/08/24 04:10:35;;;;;;;9.57;3.88;;;15.70;83.70;;;;;;5016578;28;20490;-86
2021/08/24 04:13:01;;;;;;;6.93;3.60;;;15.70;83.70;;;;;;5012603;28;20487;-88
2021/08/24 04:15:28;;;;;;;6.28;3.08;;;15.80;84.00;;;;;;5013610;28;20018;-87
2021/08/24 04:17:54;;;;;;;10.18;3.75;;;15.90;83.40;;;;;;5013567;28;20034;-87
2021/08/24 04:20:20;;;;;;;7.07;2.88;;;16.00;82.90;;;;;;5015022;28;20126;-86
2021/08/24 04:22:48;;;;;;;9.23;6.03;;;16.10;81.80;;;;;;5013679;28;20057;-87
2021/08/24 04:25:16;;;;;;;5.35;3.17;;;16.20;81.50;;;;;;5012953;28;20395;-86
2021/08/24 04:27:43;;;;;;;9.73;3.95;;;16.20;81.00;;;;;;5013915;28;20522;-87
2021/08/24 04:30:09;;;;;;;6.50;3.47;;;16.30;80.80;;;;;;5013580;28;20030;-88
2021/08/24 04:32:37;;;;;;;6.57;3.47;;;16.30;80.80;;;;;;5014500;28;20109;-86
2021/08/24 04:35:05;;;;;;;8.77;3.25;;;16.30;80.80;;;;;;5013813;28;20388;-85
2021/08/24 04:37:31;;;;;;;;;;;16.50;80.90;;;;;;5013074;28;20084;-86
2021/08/24 04:39:56;;;;;;;5.13;3.45;;;16.80;81.40;;;;;;5013018;28;19905;-87
2021/08/24 04:42:22;;;;;;;6.00;2.90;;;17.10;78.80;;;;;;5016968;28;20060;-88
2021/08/24 04:44:49;;;;;;;5.72;3.95;;;17.40;77.40;;;;;;5019038;28;20025;-87
2021/08/24 04:47:14;;;;;;;5.55;3.25;;;18.10;75.80;;;;;;5018954;28;20383;-89
2021/08/24 04:49:40;;;;;;;7.72;3.30;;;18.80;73.00;;;;;;5021277;28;20070;-88
2021/08/24 04:52:07;;;;;;;8.18;4.35;;;19.50;70.40;;;;;;5021101;28;20030;-85
2021/08/24 04:54:35;;;;;;;9.95;4.22;;;20.20;68.30;;;;;;5018866;28;20049;-89
2021/08/24 04:57:03;;;;;;;9.48;3.78;;;21.00;65.30;;;;;;5018064;28;20033;-90
2021/08/24 04:59:29;;;;;;;8.35;3.20;;;21.60;62.70;;;;;;5017491;28;20124;-89
2021/08/24 05:01:55;;;;;;;5.30;3.05;;;21.90;60.80;;;;;;5018112;28;20037;-87
2021/08/24 05:04:21;;;;;;;12.40;3.65;;;21.90;59.40;;;;;;5016885;28;20533;-88
2021/08/24 05:06:47;;;;;;;5.93;2.90;;;21.90;59.60;;;;;;5017506;28;20018;-88
2021/08/24 05:09:13;;;;;;;6.70;3.03;;;22.10;59.00;;;;;;5018986;28;20025;-90
2021/08/24 05:11:38;;;;;;;6.47;3.42;;;22.50;57.70;;;;;;5016279;28;20033;-89
2021/08/24 05:14:04;;;;;;;4.95;2.70;;;23.10;56.20;;;;;;5019833;28;20022;-88
2021/08/24 05:16:30;;;;;;;6.70;2.95;;;23.40;55.10;;;;;;5017727;28;20099;-90
2021/08/24 05:18:56;;;;;;;5.65;3.08;;;23.40;55.00;;;;;;5016514;28;20113;-88
2021/08/24 05:21:22;;;;;;;6.78;3.00;;;23.60;54.20;;;;;;5018664;28;20018;-87
2021/08/24 05:23:47;;;;;;;17.15;3.85;;;24.20;53.30;;;;;;5015727;28;20025;-89
2021/08/24 05:26:17;;;;;;;9.05;3.60;;;24.80;51.80;;;;;;5016157;28;20491;-88
2021/08/24 05:28:44;;;;;;;5.93;3.45;;;25.40;50.20;;;;;;5015773;28;20518;-86
2021/08/24 05:31:11;;;;;;;6.20;3.20;;;26.00;49.00;;;;;;5015228;28;20026;-88
2021/08/24 05:33:37;;;;;;;8.93;2.50;;;26.00;48.10;;;;;;5016205;28;20022;-87
2021/08/24 05:36:03;;;;;;;6.35;2.22;;;26.30;47.60;;;;;;5015783;28;20482;-86
2021/08/24 05:38:30;;;;;;;3.40;2.57;;;;;;;;;;5014425;28;20422;-88
2021/08/24 05:40:56;;;;;;;13.25;2.95;;;27.00;46.20;;;;;;5015441;28;20760;-87
2021/08/24 05:43:23;;;;;;;8.43;2.30;;;27.60;44.90;;;;;;5015230;28;20368;-87
2021/08/24 05:45:53;;;;;;;;;;;28.10;44.60;;;;;;5016325;28;20022;-87
2021/08/24 05:48:19;;;;;;;3.80;2.33;;;28.90;45.70;;;;;;5016658;28;19905;-86
2021/08/24 05:50:45;;;;;;;6.05;2.38;;;28.80;42.50;;;;;;5018948;28;20105;-87
2021/08/24 05:53:10;;;;;;;7.05;2.40;;;28.70;42.90;;;;;;5026588;28;20029;-85
2021/08/24 05:55:38;;;;;;;4.40;2.63;;;29.40;42.30;;;;;;5032541;28;20026;-88
2021/08/24 05:58:04;;;;;;;7.35;2.83;;;30.30;41.10;;;;;;5024533;28;20033;-87
2021/08/24 06:00:30;;;;;;;3.25;2.38;;;32.00;41.00;;;;;;5022747;28;20107;-88
2021/08/24 06:02:56;;;;;;;4.72;1.85;;;32.20;38.50;;;;;;5011522;28;20030;-89
2021/08/24 06:05:22;;;;;;;4.70;2.22;;;33.10;37.20;;;;;;5015368;28;20459;-88
2021/08/24 06:07:47;;;;;;;10.03;2.47;;;34.00;36.10;;;;;;5013784;28;20026;-87
2021/08/24 06:10:13;;;;;;;5.23;2.23;;;34.40;35.30;;;;;;5016197;28;20033;-89
2021/08/24 06:12:39;;;;;;;6.07;2.07;;;33.30;35.10;;;;;;5015910;28;20127;-88
2021/08/24 06:15:07;;;;;;;6.03;2.23;;;32.60;36.80;;;;;;5022681;28;20022;-90
2021/08/24 06:17:33;;;;;;;5.70;2.72;;;32.50;35.60;;;;;;4997508;28;20442;-90
2021/08/24 06:19:59;;;;;;;5.50;2.47;;;32.70;35.70;;;;;;4995617;28;20038;-87
2021/08/24 06:22:24;;;;;;;5.33;2.27;;;32.40;35.90;;;;;;4988109;28;20034;-87
2021/08/24 06:24:50;;;;;;;4.63;2.47;;;32.30;36.30;;;;;;4994648;28;20022;-88
2021/08/24 06:27:16;;;;;;;6.47;2.93;;;31.80;36.40;;;;;;4992270;28;20034;-85
2021/08/24 06:29:42;;;;;;;4.30;2.40;;;31.60;37.30;;;;;;4992267;28;20033;-86
2021/08/24 06:32:18;;;;;;;7.10;3.00;;;30.20;38.00;;;;;;4992859;28;20034;-87
2021/08/24 06:34:44;;;;;;;10.27;2.97;;;28.90;40.00;;;;;;4992471;28;20628;-85
2021/08/24 06:37:10;;;;;;;10.98;3.50;;;29.10;41.00;;;;;;4993541;28;20050;-86
2021/08/24 06:39:36;;;;;;;7.05;3.25;;;30.30;40.00;;;;;;4993530;28;20026;-85
2021/08/24 06:42:05;;;;;;;6.00;2.92;;;31.50;38.50;;;;;;4994806;28;20054;-83
2021/08/24 06:44:31;;;;;;;11.63;3.42;;;31.50;37.50;;;;;;4977378;28;20129;-86
2021/08/24 06:46:56;;;;;;;11.70;2.78;;;31.50;38.10;;;;;;4992614;28;20101;-85
2021/08/24 06:49:22;;;;;;;9.00;2.10;;;31.80;37.10;;;;;;5010633;28;20121;-86
2021/08/24 06:51:48;;;;;;;7.43;2.40;;;31.20;36.20;;;;;;5014571;28;20507;-83
2021/08/24 06:54:14;;;;;;;4.88;2.30;;;30.10;37.00;;;;;;5016197;28;20036;-85
2021/08/24 06:56:40;;;;;;;5.82;2.00;;;30.00;38.70;;;;;;5014714;28;20021;-84
2021/08/24 06:59:06;;;;;;;4.10;1.95;;;31.00;38.00;;;;;;5014004;28;20080;-84
2021/08/24 07:01:35;;;;;;;4.80;1.70;;;32.10;35.90;;;;;;5012967;28;20069;-86
2021/08/24 07:04:02;;;;;;;8.52;2.25;;;32.10;35.10;;;;;;5013320;28;20032;-85
2021/08/24 07:06:27;;;;;;;5.38;1.83;;;31.10;36.20;;;;;;5013336;28;20026;-86
2021/08/24 07:08:56;;;;;;;5.50;2.00;;;31.40;36.30;;;;;;5013742;28;20037;-85
2021/08/24 07:11:26;;;;;;;7.35;2.03;;;32.00;35.80;;;;;;5014437;28;20028;-86
2021/08/24 07:13:56;;;;;;;5.03;2.00;;;32.90;34.20;;;;;;5013343;28;20030;-84
2021/08/24 07:16:22;;;;;;;3.60;1.45;;;33.30;32.90;;;;;;5012411;28;20026;-86
2021/08/24 07:18:50;;;;;;;4.13;1.80;;;32.60;32.80;;;;;;5013061;28;20081;-84
2021/08/24 07:21:17;;;;;;;5.25;2.42;;;33.10;33.30;;;;;;5014557;28;20094;-85
2021/08/24 07:23:44;;;;;;;;;;;33.50;32.90;;;;;;5014906;28;20036;-85
2021/08/24 07:26:10;;;;;;;43.40;8.32;;;34.30;33.90;;;;;;5013137;28;19913;-85
2021/08/24 07:28:36;;;;;;;7.35;2.38;;;33.70;31.60;;;;;;5011602;28;20022;-84
2021/08/24 07:31:02;;;;;;;3.40;1.80;;;33.20;30.90;;;;;;5011762;28;20084;-85
2021/08/24 07:33:28;;;;;;;3.47;2.00;;;32.30;32.50;;;;;;5011801;28;20030;-87
2021/08/24 07:35:54;;;;;;;11.57;2.60;;;31.10;33.30;;;;;;5013866;28;20022;-85
2021/08/24 07:38:20;;;;;;;9.50;3.05;;;30.60;34.10;;;;;;5013051;28;20129;-85
2021/08/24 07:40:46;;;;;;;3.60;1.92;;;29.60;35.00;;;;;;5012961;28;20044;-83
2021/08/24 07:43:14;;;;;;;6.07;2.25;;;29.30;35.60;;;;;;5012824;28;20101;-86
2021/08/24 07:45:40;;;;;;;10.45;3.15;;;29.80;35.10;;;;;;5013231;28;20084;-85
2021/08/24 07:48:06;;;;;;;6.88;2.67;;;31.00;34.60;;;;;;5012949;28;20109;-84
2021/08/24 07:50:32;;;;;;;6.03;2.65;;;32.50;34.20;;;;;;5012730;28;20104;-83
2021/08/24 07:52:58;;;;;;;7.22;2.90;;;33.10;32.80;;;;;;5011519;28;20053;-86
2021/08/24 07:55:24;;;;;;;5.43;2.60;;;32.50;32.00;;;;;;5012472;28;20064;-83
2021/08/24 07:57:50;;;;;;;4.57;2.43;;;31.40;32.90;;;;;;5012842;28;20041;-85
2021/08/24 08:00:16;;;;;;;7.10;2.80;;;31.70;33.40;;;;;;5000104;28;20033;-86
2021/08/24 08:02:42;;;;;;;6.23;2.20;;;32.30;31.80;;;;;;5012564;28;20534;-85
2021/08/24 08:05:08;;;;;;;6.37;2.80;;;32.90;31.40;;;;;;5011018;28;20037;-85
2021/08/24 08:07:34;;;;;;;5.72;2.63;;;33.40;30.50;;;;;;5012659;28;20041;-85
2021/08/24 08:10:00;;;;;;;3.90;2.28;;;32.30;30.70;;;;;;5012951;28;20030;-86
2021/08/24 08:12:26;;;;;;;7.07;3.38;;;30.50;32.80;;;;;;5011586;28;20026;-85
2021/08/24 08:14:52;;;;;;;7.90;2.88;;;29.20;35.20;;;;;;5016635;28;20046;-83
2021/08/24 08:17:17;;;;;;;6.22;2.90;;;27.90;36.90;;;;;;5019044;28;20099;-85
2021/08/24 08:19:44;;;;;;;4.45;2.47;;;26.80;37.20;;;;;;5015946;28;20809;-85
2021/08/24 08:22:10;;;;;;;7.28;3.25;;;26.10;38.50;;;;;;5016671;28;20032;-83
2021/08/24 08:24:37;;;;;;;3.28;2.38;;;25.50;39.60;;;;;;5015322;28;20030;-85
2021/08/24 08:27:03;;;;;;;8.03;2.80;;;25.00;40.10;;;;;;5016827;28;20365;-84
2021/08/24 08:29:29;;;;;;;9.13;2.80;;;24.60;40.90;;;;;;5016559;28;20383;-85
2021/08/24 08:32:04;;;;;;;4.82;3.00;;;24.20;41.70;;;;;;5014869;28;20022;-85
2021/08/24 08:34:30;;;;;;;5.25;2.38;;;24.00;42.70;;;;;;5016172;28;20037;-84
2021/08/24 08:36:56;;;;;;;3.85;2.63;;;23.70;43.00;;;;;;5015245;28;20022;-86
2021/08/24 08:39:22;;;;;;;7.57;3.40;;;23.30;43.80;;;;;;5016074;28;20022;-84
2021/08/24 08:42:09;;;;;;;8.15;3.60;;;23.10;44.70;;;;;;5016401;28;20049;-83
2021/08/24 08:44:59;;;;;;;;;;;22.80;44.80;;;;;;5019393;28;20025;-84
2021/08/24 08:47:31;;;;;;;8.68;4.32;;;22.80;44.20;;;;;;5024276;28;19909;-84
2021/08/24 08:50:02;;;;;;;8.80;3.90;;;22.80;45.10;;;;;;5004479;28;20084;-84
2021/08/24 08:52:40;;;;;;;7.72;4.15;;;22.90;46.10;;;;;;5016351;28;20030;-84
2021/08/24 08:55:15;;;;;;;4.50;2.88;;;22.80;46.00;;;;;;5016476;28;20018;-83
2021/08/24 08:58:19;;;;;;;8.35;3.13;;;22.90;45.60;;;;;;5011146;28;20034;-84
2021/08/24 09:00:50;;;;;;;4.93;3.60;;;22.80;45.90;;;;;;5011649;28;20022;-85
2021/08/24 09:03:42;;;;;;;6.13;3.10;;;22.80;45.40;;;;;;5015199;28;20478;-85
2021/08/24 09:06:09;;;;;;;13.13;3.90;;;22.70;45.90;;;;;;5006131;28;20053;-85
2021/08/24 09:08:36;;;;;;;6.03;3.88;;;22.80;46.50;;;;;;5015791;28;20487;-84
2021/08/24 09:11:02;;;;;;;5.13;3.15;;;22.80;47.20;;;;;;5014260;28;20399;-85
2021/08/24 09:13:50;;;;;;;13.63;4.70;;;22.70;45.60;;;;;;5015503;28;20029;-85
2021/08/24 09:16:31;;;;;;;6.13;3.90;;;22.60;46.10;;;;;;5015586;28;20018;-84
2021/08/24 09:18:58;;;;;;;5.68;3.53;;;22.80;46.00;;;;;;5008887;28;20056;-85
2021/08/24 09:21:33;;;;;;;9.27;4.45;;;23.20;46.30;;;;;;5015599;28;20029;-85
2021/08/24 09:24:04;;;;;;;4.70;2.78;;;23.60;46.10;;;;;;5017655;28;20037;-84
2021/08/24 09:26:59;;;;;;;9.85;3.38;;;23.60;44.90;;;;;;5014856;28;20026;-88
2021/08/24 09:29:37;;;;;;;8.05;3.53;;;24.60;45.40;;;;;;5007549;28;20391;-85
2021/08/24 09:32:08;;;;;;;6.85;3.00;;;27.20;42.40;;;;;;5022093;28;20010;-85
2021/08/24 09:34:43;;;;;;;4.03;2.58;;;29.40;37.10;;;;;;5016579;28;20021;-85
2021/08/24 09:37:12;;;;;;;4.60;2.95;;;30.30;35.20;;;;;;5015681;28;20022;-85
2021/08/24 09:40:02;;;;;;;7.88;3.65;;;29.60;34.70;;;;;;5015284;28;20025;-87
2021/08/24 09:42:31;;;;;;;6.80;3.45;;;28.70;35.40;;;;;;5015071;28;20491;-85
2021/08/24 09:45:00;;;;;;;4.70;2.80;;;28.00;35.30;;;;;;5015827;28;20475;-83
2021/08/24 09:47:27;;;;;;;5.63;3.20;;;26.90;35.60;;;;;;5021096;28;20112;-85
2021/08/24 09:50:04;;;;;;;10.10;3.45;;;26.20;38.00;;;;;;5019001;28;20485;-85
2021/08/24 09:52:33;;;;;;;9.85;7.05;;;25.20;40.60;;;;;;5015841;28;20030;-83
2021/08/24 09:55:06;;;;;;;6.18;3.10;;;24.50;42.70;;;;;;5015133;28;20599;-84
2021/08/24 09:57:37;;;;;;;10.02;2.97;;;24.00;44.10;;;;;;5008193;28;20037;-84
2021/08/24 10:00:03;;;;;;;5.22;2.67;;;23.50;45.10;;;;;;5015267;28;20018;-86
2021/08/24 10:02:38;;;;;;;6.30;2.90;;;23.10;45.70;;;;;;5014916;28;20044;-86
2021/08/24 10:05:10;;;;;;;5.43;3.42;;;23.00;46.00;;;;;;5014750;28;20014;-85
2021/08/24 10:07:40;;;;;;;3.88;2.85;;;23.00;46.30;;;;;;5018572;28;20022;-83
2021/08/24 10:10:22;;;;;;;5.80;2.78;;;23.20;46.10;;;;;;5015052;28;20468;-86
2021/08/24 10:12:51;;;;;;;4.47;2.72;;;23.40;46.10;;;;;;5015758;28;20029;-84
2021/08/24 10:15:27;;;;;;;7.30;2.90;;;23.90;44.30;;;;;;5015013;28;20026;-84
2021/08/24 10:18:03;;;;;;;3.63;2.70;;;24.50;43.20;;;;;;5014951;28;20037;-85
2021/08/24 10:20:35;;;;;;;6.78;2.80;;;24.50;42.20;;;;;;5013372;28;20052;-85
2021/08/24 10:23:09;;;;;;;4.95;2.42;;;24.30;42.20;;;;;;5013762;28;20032;-85
2021/08/24 10:25:43;;;;;;;8.32;2.75;;;24.00;43.00;;;;;;5014615;28;20541;-83
2021/08/24 10:28:20;;;;;;;9.27;3.53;;;23.90;44.00;;;;;;5013531;28;20117;-86
2021/08/24 10:31:01;;;;;;;6.28;3.40;;;23.50;44.20;;;;;;5015008;28;20018;-83
2021/08/24 10:33:33;;;;;;;3.55;2.38;;;23.40;43.80;;;;;;5015316;28;20361;-83
2021/08/24 10:36:14;;;;;;;5.57;3.42;;;23.30;44.00;;;;;;5014281;28;20018;-86
2021/08/24 10:39:04;;;;;;;4.93;3.30;;;23.50;44.20;;;;;;5014508;28;20037;-86
2021/08/24 10:42:04;;;;;;;4.97;3.17;;;23.70;44.00;;;;;;5002164;28;20387;-85
2021/08/24 10:44:47;;;;;;;8.63;3.72;;;23.60;44.10;;;;;;5003166;28;20037;-87
2021/08/24 10:47:24;;;;;;;4.15;2.92;;;23.60;44.60;;;;;;5014209;28;20018;-85
2021/08/24 10:49:53;;;;;;;7.22;3.55;;;23.50;44.80;;;;;;5012826;28;20026;-85
2021/08/24 10:52:44;;;;;;;6.00;3.10;;;23.50;45.90;;;;;;5013845;28;20068;-85
2021/08/24 10:55:34;;;;;;;6.43;3.03;;;23.40;44.40;;;;;;5005528;28;20021;-85
2021/08/24 10:58:32;;;;;;;7.07;3.55;;;23.00;45.10;;;;;;5014571;28;20391;-86
2021/08/24 11:01:07;;;;;;;10.00;3.40;;;23.10;45.20;;;;;;4999239;28;20049;-85
2021/08/24 11:03:58;;;;;;;5.47;3.10;;;23.20;44.60;;;;;;5018570;28;20483;-85
2021/08/24 11:06:33;;;;;;;5.43;3.40;;;23.10;44.10;;;;;;5016212;28;20030;-85
2021/08/24 11:09:46;;;;;;;5.25;3.10;;;23.00;44.10;;;;;;5017575;28;20158;-86
2021/08/24 11:12:31;;;;;;;5.65;3.00;;;23.00;43.30;;;;;;4952926;28;20035;-86
2021/08/24 11:15:32;;;;;;;5.55;3.38;;;22.60;44.40;;;;;;5005912;28;20064;-83
2021/08/24 11:18:09;;;;;;;4.38;2.80;;;22.60;44.10;;;;;;4999165;28;20054;-85
2021/08/24 11:20:48;;;;;;;5.88;3.05;;;22.60;44.20;;;;;;5000258;28;20880;-86
2021/08/24 11:23:42;;;;;;;6.68;3.05;;;22.70;44.00;;;;;;5011920;28;20057;-84
2021/08/24 11:26:30;;;;;;;9.70;3.72;;;22.80;44.50;;;;;;5012827;28;20037;-85
2021/08/24 11:29:11;;;;;;;7.35;3.78;;;22.70;44.50;;;;;;5012694;28;20232;-85
2021/08/24 11:31:43;;;;;;;5.90;3.25;;;22.70;43.30;;;;;;5012827;28;20022;-83
2021/08/24 11:34:22;;;;;;;7.40;3.60;;;22.50;42.00;;;;;;5000829;28;20335;-85
2021/08/24 11:36:53;;;;;;;5.38;2.80;;;22.50;43.50;;;;;;5021320;28;20014;-84
2021/08/24 11:39:27;;;;;;;7.10;4.15;;;22.50;42.40;;;;;;5023391;28;20033;-84
2021/08/24 11:41:59;;;;;;;8.00;4.50;;;22.50;43.20;;;;;;5012092;28;20049;-84
2021/08/24 11:44:50;;;;;;;4.90;3.33;;;22.40;43.70;;;;;;5012869;28;20076;-86
2021/08/24 11:47:23;;;;;;;11.13;4.28;;;22.40;43.00;;;;;;5013092;28;20471;-85
2021/08/24 11:49:55;;;;;;;5.10;3.50;;;22.50;43.50;;;;;;5012727;28;20026;-86
2021/08/24 11:52:46;;;;;;;6.43;3.50;;;22.60;42.30;;;;;;5012860;28;20058;-84
2021/08/24 11:55:27;;;;;;;6.97;4.43;;;22.70;40.70;;;;;;5000820;28;20033;-83
2021/08/24 11:58:15;;;;;;;8.32;4.30;;;22.70;40.70;;;;;;5011868;28;20040;-85
2021/08/24 12:01:01;;;;;;;7.78;4.22;;;22.60;40.30;;;;;;5012340;28;20025;-85
2021/08/24 12:03:27;;;;;;;8.32;3.47;;;22.50;40.50;;;;;;5012188;28;20033;-84
2021/08/24 12:06:40;;;;;;;4.47;3.40;;;22.30;41.60;;;;;;5012327;28;20093;-85
2021/08/24 12:09:09;;;;;;;9.15;4.20;;;22.30;42.70;;;;;;5012226;28;20030;-85
2021/08/24 12:11:45;;;;;;;8.13;3.53;;;22.20;45.00;;;;;;5012604;28;20101;-84
2021/08/24 12:14:31;;;;;;;7.60;3.70;;;22.20;45.40;;;;;;5013170;28;20063;-85
2021/08/24 12:17:03;;;;;;;4.53;2.95;;;22.40;45.40;;;;;;5014698;28;20033;-83
2021/08/24 12:19:32;;;;;;;7.53;3.25;;;22.50;45.70;;;;;;5012483;28;20122;-85
2021/08/24 12:22:20;;;;;;;6.15;3.30;;;22.60;46.10;;;;;;5011715;28;20018;-86
2021/08/24 12:25:32;;;;;;;4.88;2.92;;;22.60;46.70;;;;;;5011920;28;20037;-84
2021/08/24 12:28:27;;;;;;;7.75;3.67;;;22.50;45.80;;;;;;4932849;29;20050;-84
2021/08/24 12:30:59;;;;;;;7.85;3.72;;;22.30;47.10;;;;;;4916976;29;20039;-85
2021/08/24 12:33:33;;;;;;;7.00;3.60;;;22.30;47.10;;;;;;4932866;29;20034;-84
2021/08/24 12:36:19;;;;;;;10.00;3.60;;;22.30;46.50;;;;;;4933350;29;20095;-84
2021/08/24 12:39:00;;;;;;;6.63;3.13;;;22.40;47.00;;;;;;4933712;29;20040;-84
2021/08/24 12:41:32;;;;;;;6.47;3.58;;;22.50;45.80;;;;;;4933065;29;20047;-84
2021/08/24 12:44:12;;;;;;;6.38;3.28;;;22.50;46.20;;;;;;4932717;29;20032;-85
2021/08/24 12:46:39;;;;;;;6.78;2.97;;;22.60;45.30;;;;;;4932722;29;20124;-86
2021/08/24 12:49:22;;;;;;;6.93;3.53;;;22.50;44.80;;;;;;4932373;29;20171;-84
2021/08/24 12:52:03;;;;;;;7.20;3.33;;;22.40;45.20;;;;;;4932836;29;20023;-85
2021/08/24 12:54:43;;;;;;;10.82;3.90;;;22.30;45.80;;;;;;4932881;29;20120;-85
2021/08/24 12:57:16;;;;;;;9.40;3.78;;;22.10;46.20;;;;;;4932475;29;20224;-85
2021/08/24 12:59:45;;;;;;;6.75;3.30;;;22.10;46.90;;;;;;4933256;29;20371;-85
2021/08/24 13:02:33;;;;;;;7.88;3.92;;;22.00;46.10;;;;;;4980892;28;20041;-84
2021/08/24 13:05:37;;;;;;;7.00;2.65;;;21.90;45.90;;;;;;5015621;28;20451;-85
2021/08/24 13:08:20;;;;;;;7.05;3.25;;;21.70;48.30;;;;;;5016785;28;20022;-84
2021/08/24 13:10:51;;;;;;;4.57;2.72;;;21.80;48.60;;;;;;5018040;28;20101;-84
2021/08/24 13:13:34;;;;;;;8.35;3.50;;;21.80;48.70;;;;;;5015341;28;20029;-85
2021/08/24 13:16:08;;;;;;;6.45;3.10;;;21.80;48.80;;;;;;5015353;28;20026;-86